createdAt,value
2018-04-13T00:00:57.021Z,20.60
2018-04-13T00:01:57.017Z,21.50
2018-04-13T00:02:57.219Z,21.40
2018-04-13T00:03:57.021Z,21.20
2018-04-13T00:04:57.010Z,20.60
2018-04-13T00:05:57.018Z,20.90
2018-04-13T00:06:57.205Z,22.00
2018-04-13T00:07:56.995Z,20.70
2018-04-13T00:08:57.197Z,22.60
2018-04-13T00:09:57.194Z,23.00
2018-04-13T00:10:57.006Z,20.10
2018-04-13T00:11:56.999Z,20.70
2018-04-13T00:12:56.991Z,18.50
2018-04-13T00:13:57.177Z,17.80
2018-04-13T00:14:57.186Z,17.70
2018-04-13T00:15:56.982Z,19.60
2018-04-13T00:16:56.965Z,21.30
2018-04-13T00:17:57.177Z,18.90
2018-04-13T00:18:56.957Z,20.70
2018-04-13T00:19:56.956Z,21.00
2018-04-13T00:20:56.954Z,19.00
2018-04-13T00:21:56.951Z,16.50
2018-04-13T00:22:57.146Z,18.70
2018-04-13T00:23:56.954Z,22.40
2018-04-13T00:24:56.938Z,24.20
2018-04-13T00:25:56.936Z,21.60
2018-04-13T00:26:56.929Z,20.40
2018-04-13T00:27:56.926Z,21.90
2018-04-13T00:28:56.922Z,19.00
2018-04-13T00:29:56.919Z,19.80
2018-04-13T00:30:56.927Z,21.90
2018-04-13T00:31:57.135Z,25.30
2018-04-13T00:32:56.919Z,26.10
2018-04-13T00:33:56.906Z,25.30
2018-04-13T00:34:56.901Z,26.30
2018-04-13T00:35:57.113Z,25.50
2018-04-13T00:36:56.895Z,25.60
2018-04-13T00:37:56.890Z,25.00
2018-04-13T00:38:56.888Z,26.50
2018-04-13T00:39:57.087Z,29.50
2018-04-13T00:40:57.083Z,29.40
2018-04-13T00:41:57.083Z,21.20
2018-04-13T00:42:56.873Z,19.80
2018-04-13T00:43:56.869Z,19.90
2018-04-13T00:44:56.867Z,19.70
2018-04-13T00:45:56.860Z,19.70
2018-04-13T00:46:56.857Z,19.30
2018-04-13T00:47:56.855Z,18.60
2018-04-13T00:48:57.056Z,18.00
2018-04-13T00:49:56.862Z,18.60
2018-04-13T00:50:57.049Z,18.90
2018-04-13T00:51:56.851Z,17.90
2018-04-13T00:52:56.839Z,18.10
2018-04-13T00:53:57.039Z,19.50
2018-04-13T00:54:56.828Z,18.90
2018-04-13T00:55:57.029Z,17.40
2018-04-13T00:56:56.832Z,16.70
2018-04-13T00:57:56.819Z,17.30
2018-04-13T00:58:56.815Z,16.20
2018-04-13T00:59:56.813Z,16.70
2018-04-13T01:00:56.809Z,18.20
2018-04-13T01:01:57.033Z,21.10
2018-04-13T01:02:56.800Z,21.40
2018-04-13T01:03:57.000Z,22.20
2018-04-13T01:04:56.794Z,23.10
2018-04-13T01:05:56.791Z,25.90
2018-04-13T01:06:56.785Z,27.60
2018-04-13T01:07:56.783Z,29.60
2018-04-13T01:08:56.780Z,31.20
2018-04-13T01:09:56.777Z,34.70
2018-04-13T01:10:56.770Z,34.30
2018-04-13T01:11:56.766Z,33.80
2018-04-13T01:12:56.977Z,34.60
2018-04-13T01:13:56.772Z,36.10
2018-04-13T01:14:56.753Z,33.00
2018-04-13T01:15:56.763Z,31.10
2018-04-13T01:16:56.759Z,30.60
2018-04-13T01:17:56.948Z,28.60
2018-04-13T01:18:56.739Z,26.70
2018-04-13T01:19:56.748Z,25.60
2018-04-13T01:20:56.733Z,23.90
2018-04-13T01:21:56.726Z,23.10
2018-04-13T01:22:56.746Z,23.10
2018-04-13T01:23:56.720Z,23.30
2018-04-13T01:24:56.715Z,24.10
2018-04-13T01:25:56.714Z,25.30
2018-04-13T01:26:56.708Z,23.00
2018-04-13T01:27:56.705Z,22.10
2018-04-13T01:28:56.699Z,23.10
2018-04-13T01:29:56.900Z,23.10
2018-04-13T01:30:56.701Z,22.00
2018-04-13T01:31:56.692Z,21.20
2018-04-13T01:32:56.906Z,22.10
2018-04-13T01:33:56.681Z,21.40
2018-04-13T01:34:56.685Z,20.90
2018-04-13T01:35:56.676Z,21.00
2018-04-13T01:36:56.670Z,22.70
2018-04-13T01:37:56.868Z,24.40
2018-04-13T01:38:56.666Z,24.40
2018-04-13T01:39:56.656Z,25.30
2018-04-13T01:40:56.855Z,24.20
2018-04-13T01:41:56.852Z,22.80
2018-04-13T01:42:56.847Z,24.60
2018-04-13T01:43:56.650Z,24.90
2018-04-13T01:44:56.634Z,25.30
2018-04-13T01:45:56.631Z,27.90
2018-04-13T01:46:56.681Z,30.20
2018-04-13T01:47:56.625Z,29.80
2018-04-13T01:48:56.822Z,29.10
2018-04-13T01:49:56.616Z,25.00
2018-04-13T01:50:56.617Z,25.90
2018-04-13T01:51:56.607Z,33.60
2018-04-13T01:52:56.614Z,37.80
2018-04-13T01:53:56.805Z,35.80
2018-04-13T01:54:56.611Z,35.60
2018-04-13T01:55:56.590Z,34.10
2018-04-13T01:56:56.799Z,30.30
2018-04-13T01:57:56.584Z,27.20
2018-04-13T01:58:56.577Z,25.50
2018-04-13T01:59:56.780Z,24.70
2018-04-13T02:00:56.571Z,24.30
2018-04-13T02:01:56.791Z,24.80
2018-04-13T02:02:56.563Z,21.50
2018-04-13T02:03:56.562Z,20.30
2018-04-13T02:04:56.626Z,21.30
2018-04-13T02:05:56.564Z,22.20
2018-04-13T02:06:56.557Z,27.20
2018-04-13T02:07:56.545Z,28.90
2018-04-13T02:08:56.542Z,25.60
2018-04-13T02:09:56.548Z,20.80
2018-04-13T02:10:56.535Z,21.70
2018-04-13T02:11:56.540Z,21.10
2018-04-13T02:12:56.536Z,20.70
2018-04-13T02:13:56.522Z,21.60
2018-04-13T02:14:56.519Z,25.00
2018-04-13T02:15:56.716Z,25.20
2018-04-13T02:16:56.508Z,27.60
2018-04-13T02:17:56.519Z,29.10
2018-04-13T02:18:56.714Z,29.50
2018-04-13T02:19:56.497Z,31.20
2018-04-13T02:20:56.725Z,31.10
2018-04-13T02:21:56.491Z,32.90
2018-04-13T02:22:56.498Z,32.80
2018-04-13T02:23:56.481Z,33.00
2018-04-13T02:24:56.477Z,33.00
2018-04-13T02:25:56.477Z,31.40
2018-04-13T02:26:56.481Z,31.70
2018-04-13T02:27:56.668Z,29.10
2018-04-13T02:28:56.473Z,28.90
2018-04-13T02:29:56.660Z,30.20
2018-04-13T02:30:56.467Z,28.10
2018-04-13T02:31:56.447Z,27.00
2018-04-13T02:32:56.449Z,30.90
2018-04-13T02:33:56.455Z,31.70
2018-04-13T02:34:56.449Z,30.40
2018-04-13T02:35:56.434Z,24.90
2018-04-13T02:36:56.443Z,23.50
2018-04-13T02:37:56.435Z,27.60
2018-04-13T02:38:56.419Z,35.50
2018-04-13T02:39:56.415Z,30.70
2018-04-13T02:40:56.424Z,22.10
2018-04-13T02:41:56.409Z,31.80
2018-04-13T02:42:56.404Z,29.50
2018-04-13T02:43:56.604Z,23.50
2018-04-13T02:44:56.397Z,27.20
2018-04-13T02:45:56.391Z,28.10
2018-04-13T02:46:56.398Z,27.70
2018-04-13T02:47:56.384Z,30.40
2018-04-13T02:48:56.378Z,32.70
2018-04-13T02:49:56.386Z,31.70
2018-04-13T02:50:56.583Z,32.20
2018-04-13T02:51:56.378Z,29.50
2018-04-13T02:52:56.577Z,30.10
2018-04-13T02:53:56.359Z,26.30
2018-04-13T02:54:56.364Z,27.30
2018-04-13T02:55:56.359Z,28.00
2018-04-13T02:56:56.345Z,27.60
2018-04-13T02:57:56.341Z,25.70
2018-04-13T02:58:56.542Z,24.50
2018-04-13T02:59:56.349Z,23.90
2018-04-13T03:00:56.341Z,22.70
2018-04-13T03:01:56.335Z,21.90
2018-04-13T03:02:56.521Z,21.30
2018-04-13T03:03:56.327Z,21.50
2018-04-13T03:04:56.310Z,22.10
2018-04-13T03:05:56.332Z,22.40
2018-04-13T03:06:56.300Z,23.20
2018-04-13T03:07:56.311Z,25.30
2018-04-13T03:08:56.293Z,26.10
2018-04-13T03:09:56.505Z,28.30
2018-04-13T03:10:56.282Z,29.50
2018-04-13T03:11:56.279Z,29.50
2018-04-13T03:12:56.284Z,29.90
2018-04-13T03:13:56.282Z,35.60
2018-04-13T03:14:56.468Z,36.50
2018-04-13T03:15:56.261Z,37.70
2018-04-13T03:16:56.256Z,32.80
2018-04-13T03:17:56.254Z,32.00
2018-04-13T03:18:56.302Z,33.10
2018-04-13T03:19:56.458Z,33.00
2018-04-13T03:20:56.239Z,29.50
2018-04-13T03:21:56.235Z,27.40
2018-04-13T03:22:56.231Z,24.90
2018-04-13T03:23:56.226Z,29.80
2018-04-13T03:24:56.229Z,25.70
2018-04-13T03:25:56.219Z,22.50
2018-04-13T03:26:56.211Z,21.10
2018-04-13T03:27:56.411Z,18.80
2018-04-13T03:28:56.216Z,25.10
2018-04-13T03:29:56.197Z,23.30
2018-04-13T03:30:56.201Z,16.20
2018-04-13T03:31:56.189Z,16.40
2018-04-13T03:32:56.413Z,16.50
2018-04-13T03:33:56.180Z,17.00
2018-04-13T03:34:56.378Z,15.20
2018-04-13T03:35:56.187Z,15.30
2018-04-13T03:36:56.174Z,15.40
2018-04-13T03:37:56.160Z,10.30
2018-04-13T03:38:56.157Z,10.60
2018-04-13T03:39:56.356Z,11.50
2018-04-13T03:40:56.145Z,14.60
2018-04-13T03:41:56.141Z,13.20
2018-04-13T03:42:56.147Z,15.40
2018-04-13T03:43:56.147Z,17.40
2018-04-13T03:44:56.127Z,19.70
2018-04-13T03:45:56.339Z,22.10
2018-04-13T03:46:56.119Z,23.30
2018-04-13T03:47:56.320Z,23.10
2018-04-13T03:48:56.112Z,24.70
2018-04-13T03:49:56.107Z,28.50
2018-04-13T03:50:56.100Z,33.50
2018-04-13T03:51:56.097Z,24.30
2018-04-13T03:52:56.306Z,23.90
2018-04-13T03:53:56.086Z,26.40
2018-04-13T03:54:56.296Z,24.60
2018-04-13T03:55:56.082Z,22.30
2018-04-13T03:56:56.075Z,23.50
2018-04-13T03:57:56.274Z,25.50
2018-04-13T03:58:56.065Z,29.90
2018-04-13T03:59:56.057Z,29.20
2018-04-13T04:00:56.053Z,27.90
2018-04-13T04:01:56.050Z,26.20
2018-04-13T04:02:56.044Z,26.60
2018-04-13T04:03:56.243Z,29.10
2018-04-13T04:04:56.238Z,27.40
2018-04-13T04:05:56.041Z,22.20
2018-04-13T04:06:56.032Z,24.20
2018-04-13T04:07:56.025Z,23.70
2018-04-13T04:08:56.218Z,23.20
2018-04-13T04:09:56.012Z,18.90
2018-04-13T04:10:56.040Z,18.90
2018-04-13T04:11:56.003Z,19.40
2018-04-13T04:12:55.997Z,20.30
2018-04-13T04:13:56.195Z,19.30
2018-04-13T04:14:55.994Z,27.70
2018-04-13T04:15:55.982Z,23.90
2018-04-13T04:16:56.190Z,21.50
2018-04-13T04:17:55.982Z,25.40
2018-04-13T04:18:55.987Z,25.20
2018-04-13T04:19:55.992Z,19.30
2018-04-13T04:20:55.968Z,18.20
2018-04-13T04:21:56.173Z,18.90
2018-04-13T04:22:55.952Z,24.90
2018-04-13T04:23:55.948Z,33.70
2018-04-13T04:24:55.940Z,45.00
2018-04-13T04:25:56.150Z,46.20
2018-04-13T04:26:55.942Z,48.60
2018-04-13T04:27:55.923Z,49.50
2018-04-13T04:28:55.945Z,48.00
2018-04-13T04:29:55.914Z,46.60
2018-04-13T04:30:55.909Z,46.60
2018-04-13T04:31:55.905Z,46.90
2018-04-13T04:32:55.901Z,44.00
2018-04-13T04:33:55.896Z,42.80
2018-04-13T04:34:55.889Z,41.60
2018-04-13T04:35:55.885Z,42.90
2018-04-13T04:36:55.907Z,42.60
2018-04-13T04:37:55.885Z,41.50
2018-04-13T04:38:56.092Z,41.30
2018-04-13T04:39:56.079Z,43.30
2018-04-13T04:40:55.867Z,42.50
2018-04-13T04:41:55.876Z,38.20
2018-04-13T04:42:55.855Z,34.50
2018-04-13T04:43:55.848Z,35.40
2018-04-13T04:44:55.854Z,35.40
2018-04-13T04:45:56.042Z,33.60
2018-04-13T04:46:55.841Z,33.30
2018-04-13T04:47:55.829Z,32.10
2018-04-13T04:48:55.823Z,31.50
2018-04-13T04:49:56.069Z,32.90
2018-04-13T04:50:56.017Z,36.30
2018-04-13T04:51:55.819Z,39.10
2018-04-13T04:52:55.806Z,38.00
2018-04-13T04:53:55.803Z,33.20
2018-04-13T04:54:55.799Z,35.10
2018-04-13T04:55:55.803Z,31.10
2018-04-13T04:56:55.789Z,26.70
2018-04-13T04:57:55.786Z,26.40
2018-04-13T04:58:55.979Z,27.00
2018-04-13T04:59:55.987Z,27.90
2018-04-13T05:00:55.769Z,29.00
2018-04-13T05:01:55.971Z,29.60
2018-04-13T05:02:55.969Z,29.90
2018-04-13T05:03:55.754Z,28.60
2018-04-13T05:04:55.755Z,30.20
2018-04-13T05:05:55.783Z,33.20
2018-04-13T05:06:55.751Z,31.50
2018-04-13T05:07:55.735Z,33.50
2018-04-13T05:08:55.734Z,34.60
2018-04-13T05:09:55.738Z,34.90
2018-04-13T05:10:55.734Z,31.50
2018-04-13T05:11:55.752Z,30.00
2018-04-13T05:12:55.716Z,29.20
2018-04-13T05:13:55.912Z,28.70
2018-04-13T05:14:55.916Z,30.10
2018-04-13T05:15:55.711Z,29.90
2018-04-13T05:16:55.708Z,32.30
2018-04-13T05:17:55.899Z,33.10
2018-04-13T05:18:55.685Z,30.90
2018-04-13T05:19:55.682Z,30.00
2018-04-13T05:20:55.893Z,30.00
2018-04-13T05:21:55.685Z,34.00
2018-04-13T05:22:55.666Z,34.70
2018-04-13T05:23:55.672Z,33.10
2018-04-13T05:24:55.660Z,38.90
2018-04-13T05:25:55.654Z,40.40
2018-04-13T05:26:55.651Z,42.10
2018-04-13T05:27:55.644Z,42.00
2018-04-13T05:28:55.645Z,43.50
2018-04-13T05:29:55.647Z,45.70
2018-04-13T05:30:55.630Z,48.50
2018-04-13T05:31:55.643Z,49.30
2018-04-13T05:32:55.620Z,49.00
2018-04-13T05:33:55.832Z,50.70
2018-04-13T05:34:55.623Z,49.90
2018-04-13T05:35:55.637Z,49.30
2018-04-13T05:36:55.614Z,49.30
2018-04-13T05:37:55.825Z,48.20
2018-04-13T05:38:55.608Z,47.80
2018-04-13T05:39:55.592Z,47.60
2018-04-13T05:40:55.790Z,49.80
2018-04-13T05:41:55.812Z,47.90
2018-04-13T05:42:55.590Z,47.40
2018-04-13T05:43:55.573Z,46.60
2018-04-13T05:44:55.584Z,47.50
2018-04-13T05:45:55.563Z,48.60
2018-04-13T05:46:55.561Z,49.10
2018-04-13T05:47:55.555Z,51.60
2018-04-13T05:48:55.552Z,50.00
2018-04-13T05:49:55.547Z,49.60
2018-04-13T05:50:55.546Z,51.80
2018-04-13T05:51:55.542Z,52.80
2018-04-13T05:52:55.550Z,53.20
2018-04-13T05:53:55.533Z,48.60
2018-04-13T05:54:55.528Z,48.70
2018-04-13T05:55:55.737Z,49.10
2018-04-13T05:56:55.519Z,50.60
2018-04-13T05:57:55.515Z,53.20
2018-04-13T05:58:55.520Z,52.20
2018-04-13T05:59:55.510Z,55.20
2018-04-13T06:00:55.505Z,53.60
2018-04-13T06:01:55.500Z,53.00
2018-04-13T06:02:55.491Z,54.30
2018-04-13T06:03:55.488Z,53.50
2018-04-13T06:04:55.687Z,54.90
2018-04-13T06:05:55.492Z,55.90
2018-04-13T06:06:55.477Z,55.30
2018-04-13T06:07:55.477Z,57.30
2018-04-13T06:08:55.477Z,58.30
2018-04-13T06:09:55.461Z,60.90
2018-04-13T06:10:55.457Z,67.30
2018-04-13T06:11:55.454Z,67.20
2018-04-13T06:12:55.452Z,69.10
2018-04-13T06:13:55.448Z,68.20
2018-04-13T06:14:55.456Z,72.00
2018-04-13T06:15:55.452Z,81.30
2018-04-13T06:16:55.437Z,87.70
2018-04-13T06:17:55.431Z,90.70
2018-04-13T06:18:55.483Z,93.40
2018-04-13T06:19:55.638Z,96.50
2018-04-13T06:20:55.423Z,95.00
2018-04-13T06:21:55.412Z,92.40
2018-04-13T06:22:55.437Z,94.50
2018-04-13T06:23:55.404Z,95.20
2018-04-13T06:24:55.400Z,97.60
2018-04-13T06:25:55.428Z,96.30
2018-04-13T06:26:55.405Z,92.20
2018-04-13T06:27:55.388Z,92.00
2018-04-13T06:28:55.384Z,83.20
2018-04-13T06:29:55.379Z,84.00
2018-04-13T06:30:55.584Z,83.30
2018-04-13T06:31:55.384Z,80.60
2018-04-13T06:32:55.572Z,84.50
2018-04-13T06:33:55.367Z,85.50
2018-04-13T06:34:55.372Z,85.20
2018-04-13T06:35:55.574Z,86.10
2018-04-13T06:36:55.354Z,86.90
2018-04-13T06:37:55.558Z,84.50
2018-04-13T06:38:55.348Z,86.10
2018-04-13T06:39:55.341Z,85.60
2018-04-13T06:40:55.338Z,84.20
2018-04-13T06:41:55.335Z,81.70
2018-04-13T06:42:55.332Z,80.70
2018-04-13T06:43:55.326Z,82.40
2018-04-13T06:44:55.333Z,82.00
2018-04-13T06:45:55.322Z,81.40
2018-04-13T06:46:55.518Z,81.90
2018-04-13T06:47:55.338Z,84.60
2018-04-13T06:48:55.330Z,80.50
2018-04-13T06:49:55.306Z,78.70
2018-04-13T06:50:55.298Z,80.40
2018-04-13T06:51:55.319Z,81.90
2018-04-13T06:52:55.293Z,77.30
2018-04-13T06:53:55.300Z,81.50
2018-04-13T06:54:55.297Z,84.70
2018-04-13T06:55:55.281Z,84.30
2018-04-13T06:56:55.496Z,85.40
2018-04-13T06:57:55.302Z,84.70
2018-04-13T06:58:55.275Z,85.70
2018-04-13T06:59:55.270Z,87.00
2018-04-13T07:00:55.470Z,84.00
2018-04-13T07:01:55.279Z,83.80
2018-04-13T07:02:55.259Z,85.20
2018-04-13T07:03:55.272Z,88.50
2018-04-13T07:04:55.253Z,88.10
2018-04-13T07:05:55.473Z,88.60
2018-04-13T07:06:55.243Z,88.30
2018-04-13T07:07:55.254Z,89.50
2018-04-13T07:08:55.248Z,90.30
2018-04-13T07:09:55.232Z,94.40
2018-04-13T07:10:55.252Z,94.10
2018-04-13T07:11:55.430Z,94.50
2018-04-13T07:12:55.234Z,96.30
2018-04-13T07:13:55.222Z,99.30
2018-04-13T07:14:55.227Z,97.40
2018-04-13T07:15:55.223Z,100.30
2018-04-13T07:16:55.225Z,100.30
2018-04-13T07:17:55.222Z,101.00
2018-04-13T07:18:55.215Z,100.00
2018-04-13T07:19:55.222Z,99.60
2018-04-13T07:20:55.404Z,102.00
2018-04-13T07:21:55.196Z,101.40
2018-04-13T07:22:55.417Z,101.20
2018-04-13T07:23:55.191Z,101.30
2018-04-13T07:24:55.450Z,100.90
2018-04-13T07:25:55.395Z,98.60
2018-04-13T07:26:55.185Z,100.40
2018-04-13T07:27:55.182Z,98.00
2018-04-13T07:28:55.377Z,98.40
2018-04-13T07:29:55.374Z,99.90
2018-04-13T07:30:55.182Z,100.20
2018-04-13T07:31:55.869Z,97.90
2018-04-13T07:32:55.365Z,96.70
2018-04-13T07:33:55.553Z,96.60
2018-04-13T07:34:55.153Z,96.30
2018-04-13T07:35:55.252Z,97.00
2018-04-13T07:36:55.145Z,100.00
2018-04-13T07:37:55.145Z,99.10
2018-04-13T07:38:55.496Z,102.50
2018-04-13T07:39:55.151Z,104.20
2018-04-13T07:40:55.134Z,102.50
2018-04-13T07:41:55.153Z,100.60
2018-04-13T07:42:55.131Z,100.40
2018-04-13T07:43:55.127Z,99.50
2018-04-13T07:44:55.135Z,99.70
2018-04-13T07:45:55.397Z,97.70
2018-04-13T07:46:55.321Z,98.00
2018-04-13T07:47:55.115Z,99.60
2018-04-13T07:48:55.111Z,96.00
2018-04-13T07:49:55.119Z,98.20
2018-04-13T07:50:55.119Z,97.80
2018-04-13T07:51:55.526Z,91.80
2018-04-13T07:52:55.122Z,93.10
2018-04-13T07:53:55.304Z,93.30
2018-04-13T07:54:55.308Z,92.50
2018-04-13T07:55:55.106Z,96.30
2018-04-13T07:56:55.092Z,95.70
2018-04-13T07:57:55.303Z,95.90
2018-04-13T07:58:55.563Z,96.20
2018-04-13T07:59:55.082Z,96.00
2018-04-13T08:00:55.078Z,98.30
2018-04-13T08:01:55.075Z,98.90
2018-04-13T08:02:55.073Z,100.50
2018-04-13T08:03:55.283Z,99.90
2018-04-13T08:04:55.068Z,99.80
2018-04-13T08:05:55.067Z,94.30
2018-04-13T08:06:55.060Z,95.00
2018-04-13T08:07:55.085Z,95.30
2018-04-13T08:08:55.258Z,95.00
2018-04-13T08:09:55.273Z,96.70
2018-04-13T08:10:55.063Z,97.50
2018-04-13T08:11:55.049Z,95.70
2018-04-13T08:12:55.260Z,96.30
2018-04-13T08:13:55.043Z,96.70
2018-04-13T08:14:55.064Z,95.30
2018-04-13T08:15:55.043Z,95.00
2018-04-13T08:16:55.240Z,92.20
2018-04-13T08:17:55.055Z,90.70
2018-04-13T08:18:55.027Z,91.60
2018-04-13T08:19:55.025Z,91.80
2018-04-13T08:20:55.023Z,91.40
2018-04-13T08:21:55.037Z,85.80
2018-04-13T08:22:55.030Z,87.70
2018-04-13T08:23:55.017Z,88.30
2018-04-13T08:24:55.028Z,86.00
2018-04-13T08:25:55.022Z,87.20
2018-04-13T08:26:55.007Z,88.80
2018-04-13T08:27:55.006Z,89.40
2018-04-13T08:28:55.220Z,88.20
2018-04-13T08:29:55.215Z,87.60
2018-04-13T08:30:54.998Z,91.40
2018-04-13T08:31:54.997Z,89.60
2018-04-13T08:32:55.020Z,93.80
2018-04-13T08:33:55.004Z,92.10
2018-04-13T08:34:55.224Z,95.20
2018-04-13T08:35:54.987Z,97.70
2018-04-13T08:36:54.987Z,96.40
2018-04-13T08:37:55.187Z,99.60
2018-04-13T08:38:55.183Z,98.10
2018-04-13T08:39:54.998Z,101.20
2018-04-13T08:40:54.977Z,99.30
2018-04-13T08:41:54.974Z,99.10
2018-04-13T08:42:54.983Z,101.70
2018-04-13T08:43:54.981Z,102.30
2018-04-13T08:44:54.968Z,103.50
2018-04-13T08:45:54.964Z,104.60
2018-04-13T08:46:54.960Z,105.60
2018-04-13T08:47:54.981Z,106.40
2018-04-13T08:48:55.331Z,108.90
2018-04-13T08:49:55.156Z,104.80
2018-04-13T08:50:54.953Z,106.90
2018-04-13T08:51:54.965Z,111.50
2018-04-13T08:52:55.011Z,113.80
2018-04-13T08:53:54.957Z,114.90
2018-04-13T08:54:54.943Z,114.90
2018-04-13T08:55:54.951Z,118.80
2018-04-13T08:56:55.198Z,119.60
2018-04-13T08:57:55.157Z,117.10
2018-04-13T08:58:54.961Z,119.20
2018-04-13T08:59:54.930Z,118.10
2018-04-13T09:00:55.161Z,120.20
2018-04-13T09:01:54.939Z,117.30
2018-04-13T09:02:54.935Z,117.80
2018-04-13T09:03:54.949Z,118.30
2018-04-13T09:04:55.123Z,118.20
2018-04-13T09:05:54.917Z,117.30
2018-04-13T09:06:54.932Z,119.40
2018-04-13T09:07:54.925Z,120.00
2018-04-13T09:08:54.923Z,116.50
2018-04-13T09:09:54.918Z,116.60
2018-04-13T09:10:54.925Z,114.00
2018-04-13T09:11:54.905Z,115.30
2018-04-13T09:12:54.928Z,114.30
2018-04-13T09:13:54.911Z,113.00
2018-04-13T09:14:54.909Z,111.50
2018-04-13T09:15:54.899Z,114.30
2018-04-13T09:16:54.894Z,112.40
2018-04-13T09:17:54.906Z,113.10
2018-04-13T09:18:55.091Z,116.80
2018-04-13T09:19:55.090Z,114.40
2018-04-13T09:20:54.895Z,111.50
2018-04-13T09:21:55.095Z,112.70
2018-04-13T09:22:54.891Z,111.40
2018-04-13T09:23:54.880Z,114.20
2018-04-13T09:24:54.876Z,116.10
2018-04-13T09:25:54.875Z,114.60
2018-04-13T09:26:55.085Z,113.80
2018-04-13T09:27:54.935Z,112.20
2018-04-13T09:28:54.895Z,110.40
2018-04-13T09:29:54.865Z,114.60
2018-04-13T09:30:55.065Z,113.30
2018-04-13T09:31:54.861Z,114.50
2018-04-13T09:32:54.864Z,113.60
2018-04-13T09:33:55.061Z,114.00
2018-04-13T09:34:54.858Z,113.20
2018-04-13T09:35:55.066Z,114.00
2018-04-13T09:36:54.851Z,109.90
2018-04-13T09:37:54.876Z,108.70
2018-04-13T09:38:54.851Z,108.10
2018-04-13T09:39:54.855Z,106.70
2018-04-13T09:40:55.044Z,104.00
2018-04-13T09:41:54.855Z,104.20
2018-04-13T09:42:54.849Z,107.30
2018-04-13T09:43:55.050Z,106.60
2018-04-13T09:44:55.049Z,103.80
2018-04-13T09:45:54.840Z,104.80
2018-04-13T09:46:54.834Z,101.90
2018-04-13T09:47:54.852Z,101.30
2018-04-13T09:48:54.831Z,101.20
2018-04-13T09:49:54.841Z,100.80
2018-04-13T09:50:54.828Z,100.40
2018-04-13T09:51:54.825Z,97.90
2018-04-13T09:52:55.048Z,96.00
2018-04-13T09:53:54.823Z,95.50
2018-04-13T09:54:54.828Z,94.60
2018-04-13T09:55:54.815Z,90.90
2018-04-13T09:56:54.828Z,79.40
2018-04-13T09:57:54.816Z,72.40
2018-04-13T09:58:55.025Z,71.50
2018-04-13T09:59:54.807Z,71.60
2018-04-13T10:00:54.820Z,73.40
2018-04-13T10:01:54.825Z,72.50
2018-04-13T10:02:54.808Z,71.50
2018-04-13T10:03:54.802Z,66.20
2018-04-13T10:04:54.801Z,59.30
2018-04-13T10:05:54.796Z,52.50
2018-04-13T10:06:54.805Z,48.30
2018-04-13T10:07:54.804Z,49.10
2018-04-13T10:08:54.791Z,52.20
2018-04-13T10:09:54.805Z,51.90
2018-04-13T10:10:54.791Z,51.80
2018-04-13T10:11:54.787Z,51.70
2018-04-13T10:12:54.786Z,52.50
2018-04-13T10:13:54.783Z,51.60
2018-04-13T10:14:54.787Z,40.00
2018-04-13T10:15:54.780Z,35.70
2018-04-13T10:16:54.981Z,34.50
2018-04-13T10:17:54.787Z,34.50
2018-04-13T10:18:54.772Z,33.00
2018-04-13T10:19:54.771Z,33.30
2018-04-13T10:20:54.780Z,32.80
2018-04-13T10:21:54.768Z,30.10
2018-04-13T10:22:54.765Z,27.90
2018-04-13T10:23:54.970Z,24.50
2018-04-13T10:24:54.785Z,24.90
2018-04-13T10:25:54.769Z,25.40
2018-04-13T10:26:54.777Z,25.10
2018-04-13T10:27:54.766Z,26.00
2018-04-13T10:28:54.957Z,24.30
2018-04-13T10:29:54.756Z,24.80
2018-04-13T10:30:54.750Z,25.30
2018-04-13T10:31:54.746Z,26.00
2018-04-13T10:32:54.759Z,25.70
2018-04-13T10:33:54.753Z,27.00
2018-04-13T10:34:54.945Z,26.20
2018-04-13T10:35:54.740Z,26.40
2018-04-13T10:36:54.741Z,26.20
2018-04-13T10:37:54.738Z,27.60
2018-04-13T10:38:54.936Z,26.10
2018-04-13T10:39:54.946Z,25.80
2018-04-13T10:40:54.932Z,27.00
2018-04-13T10:41:54.932Z,27.40
2018-04-13T10:42:54.952Z,28.70
2018-04-13T10:43:54.734Z,27.90
2018-04-13T10:44:54.731Z,27.60
2018-04-13T10:45:54.923Z,28.90
2018-04-13T10:46:54.731Z,28.50
2018-04-13T10:47:54.723Z,28.00
2018-04-13T10:48:54.712Z,29.00
2018-04-13T10:49:54.711Z,28.80
2018-04-13T10:50:54.712Z,28.60
2018-04-13T10:51:54.921Z,27.50
2018-04-13T10:52:54.906Z,27.40
2018-04-13T10:53:54.906Z,25.60
2018-04-13T10:54:54.906Z,24.80
2018-04-13T10:55:54.709Z,24.30
2018-04-13T10:56:54.698Z,23.70
2018-04-13T10:57:54.912Z,23.30
2018-04-13T10:58:54.706Z,22.80
2018-04-13T10:59:54.691Z,23.60
2018-04-13T11:00:54.689Z,23.20
2018-04-13T11:01:54.686Z,22.60
2018-04-13T11:02:54.711Z,23.40
2018-04-13T11:03:54.889Z,23.00
2018-04-13T11:04:54.694Z,21.90
2018-04-13T11:05:54.691Z,21.90
2018-04-13T11:06:54.892Z,22.40
2018-04-13T11:07:54.679Z,22.40
2018-04-13T11:08:54.886Z,23.20
2018-04-13T11:09:54.671Z,21.70
2018-04-13T11:10:54.668Z,21.90
2018-04-13T11:11:54.682Z,21.50
2018-04-13T11:12:54.676Z,21.40
2018-04-13T11:13:54.665Z,20.90
2018-04-13T11:14:54.663Z,20.60
2018-04-13T11:15:54.675Z,22.10
2018-04-13T11:16:54.714Z,21.30
2018-04-13T11:17:54.665Z,21.90
2018-04-13T11:18:54.650Z,20.80
2018-04-13T11:19:54.863Z,20.70
2018-04-13T11:20:54.649Z,21.50
2018-04-13T11:21:54.663Z,21.90
2018-04-13T11:22:54.666Z,22.00
2018-04-13T11:23:54.642Z,23.20
2018-04-13T11:24:54.653Z,23.20
2018-04-13T11:25:54.637Z,23.60
2018-04-13T11:26:54.644Z,23.50
2018-04-13T11:27:54.633Z,24.40
2018-04-13T11:28:54.629Z,24.00
2018-04-13T11:29:54.831Z,23.50
2018-04-13T11:30:54.839Z,24.60
2018-04-13T11:31:54.627Z,23.80
2018-04-13T11:32:54.636Z,23.90
2018-04-13T11:33:54.834Z,25.10
2018-04-13T11:34:54.627Z,24.20
2018-04-13T11:35:54.616Z,24.30
2018-04-13T11:36:54.615Z,24.60
2018-04-13T11:37:54.624Z,25.10
2018-04-13T11:38:54.609Z,23.00
2018-04-13T11:39:54.618Z,24.90
2018-04-13T11:40:54.819Z,23.60
2018-04-13T11:41:54.604Z,23.70
2018-04-13T11:42:54.611Z,23.20
2018-04-13T11:43:54.802Z,24.30
2018-04-13T11:44:54.598Z,23.60
2018-04-13T11:45:54.607Z,23.50
2018-04-13T11:46:54.617Z,23.30
2018-04-13T11:47:54.592Z,22.70
2018-04-13T11:48:54.617Z,16.70
2018-04-13T11:49:54.802Z,13.60
2018-04-13T11:50:54.604Z,13.70
2018-04-13T11:51:54.799Z,13.10
2018-04-13T11:52:54.583Z,11.80
2018-04-13T11:53:54.582Z,13.20
2018-04-13T11:54:54.606Z,13.70
2018-04-13T11:55:54.577Z,12.90
2018-04-13T11:56:54.591Z,13.60
2018-04-13T11:57:54.587Z,14.20
2018-04-13T11:58:54.584Z,13.20
2018-04-13T11:59:54.570Z,14.60
2018-04-13T12:00:54.571Z,14.20
2018-04-13T12:01:54.579Z,14.70
2018-04-13T12:02:54.566Z,14.70
2018-04-13T12:03:54.766Z,15.40
2018-04-13T12:04:54.572Z,14.40
2018-04-13T12:05:54.773Z,14.00
2018-04-13T12:06:54.569Z,14.70
2018-04-13T12:07:54.557Z,14.40
2018-04-13T12:08:54.553Z,14.40
2018-04-13T12:09:54.552Z,14.60
2018-04-13T12:10:54.563Z,14.50
2018-04-13T12:11:54.783Z,14.60
2018-04-13T12:12:54.547Z,14.30
2018-04-13T12:13:54.546Z,14.40
2018-04-13T12:14:54.557Z,13.10
2018-04-13T12:15:54.554Z,12.80
2018-04-13T12:16:54.568Z,13.20
2018-04-13T12:17:54.553Z,13.50
2018-04-13T12:18:54.539Z,13.70
2018-04-13T12:19:54.548Z,13.70
2018-04-13T12:20:54.540Z,13.00
2018-04-13T12:21:54.536Z,12.40
2018-04-13T12:22:54.537Z,13.30
2018-04-13T12:23:54.536Z,13.70
2018-04-13T12:24:54.541Z,13.30
2018-04-13T12:25:54.530Z,13.50
2018-04-13T12:26:54.533Z,13.80
2018-04-13T12:27:54.537Z,14.10
2018-04-13T12:28:54.553Z,13.80
2018-04-13T12:29:54.538Z,13.70
2018-04-13T12:30:54.546Z,13.90
2018-04-13T12:31:54.522Z,13.10
2018-04-13T12:32:54.521Z,14.10
2018-04-13T12:33:54.527Z,13.40
2018-04-13T12:34:54.541Z,13.00
2018-04-13T12:35:54.519Z,12.60
2018-04-13T12:36:54.526Z,13.10
2018-04-13T12:37:54.540Z,13.50
2018-04-13T12:38:54.539Z,13.40
2018-04-13T12:39:54.511Z,12.60
2018-04-13T12:40:54.521Z,13.20
2018-04-13T12:41:54.516Z,13.80
2018-04-13T12:42:54.504Z,13.20
2018-04-13T12:43:54.502Z,13.80
2018-04-13T12:44:54.513Z,13.40
2018-04-13T12:45:54.512Z,12.90
2018-04-13T12:46:54.502Z,13.10
2018-04-13T12:47:54.521Z,13.50
2018-04-13T12:48:54.503Z,13.20
2018-04-13T12:49:54.507Z,12.30